Terminal Aerodrome Forecast
Issued by NWS

Home | Current Version | Previous Version | Text Only | Print | Product List | Glossary On
Versions: 1 2 3 4 5 6 7 8 9 10 11 12 13 14 15 16 17 18 19 20 21 22 23 24 25 26 27 28 29
000
FTUS44 KHGX 281734
TAFLBX
TAF
KLBX 281734Z 2818/2918 09009KT P6SM VCSH SCT030 BKN050
     FM282100 09009KT P6SM SCT030 BKN045
     FM290100 10005KT P6SM SCT120
     FM290900 VRB03KT P6SM VCSH SCT015 SCT250
     FM291400 21007KT P6SM VCSH SCT025 BKN035=

USA.gov is the U.S. government's official web portal to all federal, state and local government web resources and services.